createdAt,value
2023-03-17T00:03:42.973Z,22.30
2023-03-17T00:08:49.826Z,22.40
2023-03-17T00:13:56.408Z,22.40
2023-03-17T00:19:04.145Z,22.40
2023-03-17T00:24:15.279Z,22.50
2023-03-17T00:29:22.725Z,22.60
2023-03-17T00:34:29.797Z,22.50
2023-03-17T00:39:36.054Z,22.60
2023-03-17T00:44:42.177Z,22.60
2023-03-17T00:49:50.654Z,22.80
2023-03-17T00:54:57.525Z,22.80
2023-03-17T01:00:05.964Z,22.90
2023-03-17T01:05:13.828Z,22.90
2023-03-17T01:10:30.065Z,22.90
2023-03-17T01:15:36.716Z,23.00
2023-03-17T01:20:45.655Z,23.10
2023-03-17T01:25:52.910Z,23.10
2023-03-17T01:30:59.769Z,23.20
2023-03-17T01:36:06.049Z,23.30
2023-03-17T01:41:12.873Z,23.30
2023-03-17T01:46:37.431Z,23.30
2023-03-17T01:52:12.513Z,23.50
2023-03-17T01:57:22.655Z,23.60
2023-03-17T02:02:43.696Z,23.60
2023-03-17T02:07:51.572Z,23.60
2023-03-17T02:13:10.848Z,23.70
2023-03-17T02:18:24.716Z,23.80
2023-03-17T02:24:10.076Z,24.00
2023-03-17T02:29:18.426Z,24.00
2023-03-17T02:39:43.967Z,24.20
2023-03-17T02:44:54.776Z,24.30
2023-03-17T02:50:04.763Z,24.40
2023-03-17T02:55:15.630Z,24.40
2023-03-17T03:05:47.507Z,24.80
2023-03-17T03:10:56.799Z,24.80
2023-03-17T03:16:03.509Z,24.90
2023-03-17T03:21:13.314Z,24.80
2023-03-17T03:26:25.555Z,24.90
2023-03-17T03:48:02.448Z,25.30
2023-03-17T03:53:08.610Z,25.30
2023-03-17T03:58:15.543Z,25.40
2023-03-17T04:03:22.278Z,25.50
2023-03-17T04:08:28.895Z,25.50
2023-03-17T04:13:34.840Z,25.50
2023-03-17T04:18:40.777Z,25.70
2023-03-17T04:23:47.606Z,26.00
2023-03-17T04:28:54.088Z,25.90
2023-03-17T04:34:00.444Z,25.80
2023-03-17T04:39:06.664Z,26.10
2023-03-17T04:44:13.357Z,26.40
2023-03-17T04:49:18.935Z,26.60
2023-03-17T04:54:25.496Z,26.60
2023-03-17T04:59:31.900Z,26.70
2023-03-17T05:04:38.472Z,26.40
2023-03-17T05:09:44.759Z,26.30
2023-03-17T05:14:54.502Z,26.10
2023-03-17T05:20:03.696Z,26.00
2023-03-17T05:25:11.121Z,25.80
2023-03-17T05:30:20.260Z,25.70
2023-03-17T05:35:26.234Z,25.80
2023-03-17T05:40:32.643Z,26.00
2023-03-17T05:45:38.897Z,25.90
2023-03-17T05:50:45.946Z,25.80
2023-03-17T05:55:53.612Z,25.80
2023-03-17T06:01:00.395Z,25.80
2023-03-17T06:06:06.745Z,26.00
2023-03-17T06:11:15.944Z,26.30
2023-03-17T06:16:22.198Z,26.40
2023-03-17T06:21:27.618Z,26.50
2023-03-17T06:26:33.648Z,26.70
2023-03-17T06:31:39.039Z,26.80
2023-03-17T06:36:45.561Z,27.10
2023-03-17T06:41:52.069Z,27.40
2023-03-17T06:46:58.417Z,27.50
2023-03-17T06:52:04.901Z,27.30
2023-03-17T06:57:11.343Z,27.40
2023-03-17T07:02:17.383Z,27.80
2023-03-17T07:07:22.620Z,27.90
2023-03-17T07:12:28.794Z,27.60
2023-03-17T07:17:37.397Z,27.40
2023-03-17T07:22:44.084Z,27.50
2023-03-17T07:27:50.138Z,27.30
2023-03-17T07:32:56.691Z,27.20
2023-03-17T07:38:03.709Z,27.30
2023-03-17T07:43:09.776Z,27.20
2023-03-17T07:48:22.590Z,26.90
2023-03-17T07:53:28.827Z,26.50
2023-03-17T07:58:34.602Z,26.10
2023-03-17T08:03:41.661Z,25.90
2023-03-17T08:08:47.858Z,25.80
2023-03-17T08:13:53.931Z,25.80
2023-03-17T08:19:00.207Z,25.80
2023-03-17T08:24:06.476Z,26.00
2023-03-17T08:29:11.778Z,26.40
2023-03-17T08:34:18.059Z,26.60
2023-03-17T08:39:41.859Z,26.90
2023-03-17T08:44:51.307Z,27.40
2023-03-17T08:49:58.990Z,27.60
2023-03-17T08:55:08.863Z,27.50
2023-03-17T09:00:21.939Z,27.60
2023-03-17T09:05:28.712Z,27.60
2023-03-17T09:10:35.072Z,27.50
2023-03-17T09:15:41.303Z,27.20
2023-03-17T09:20:47.402Z,27.00
2023-03-17T09:25:53.750Z,26.90
2023-03-17T09:31:04.912Z,26.60
2023-03-17T09:36:13.278Z,26.40
2023-03-17T09:41:21.991Z,26.10
2023-03-17T09:46:48.847Z,25.80
2023-03-17T09:51:56.009Z,25.50
2023-03-17T09:57:40.610Z,25.30
2023-03-17T10:02:47.831Z,25.20
2023-03-17T10:08:33.022Z,25.20
2023-03-17T10:14:02.324Z,25.10
2023-03-17T10:19:21.267Z,24.90
2023-03-17T10:24:32.456Z,24.90
2023-03-17T10:29:40.061Z,24.90
2023-03-17T10:34:47.385Z,24.70
2023-03-17T10:40:01.558Z,24.60
2023-03-17T10:45:29.018Z,24.50
2023-03-17T10:50:38.376Z,24.50
2023-03-17T10:55:54.860Z,24.40
2023-03-17T11:01:21.367Z,24.40
2023-03-17T11:06:43.992Z,24.30
2023-03-17T11:11:52.772Z,24.30
2023-03-17T11:17:03.590Z,24.20
2023-03-17T11:22:17.199Z,24.10
2023-03-17T11:27:34.092Z,24.10
2023-03-17T11:33:03.192Z,24.10
2023-03-17T11:38:25.791Z,24.00
2023-03-17T11:50:23.804Z,24.10
2023-03-17T11:55:46.147Z,24.00
2023-03-17T12:01:02.149Z,23.90
2023-03-17T12:06:18.518Z,23.90
2023-03-17T12:11:43.847Z,23.90
2023-03-17T12:17:19.842Z,23.90
2023-03-17T12:22:44.838Z,23.80
2023-03-17T12:28:18.831Z,23.80
2023-03-17T12:33:36.144Z,23.80
2023-03-17T12:38:54.777Z,23.70
2023-03-17T12:44:20.423Z,23.70
2023-03-17T12:50:07.906Z,23.60
2023-03-17T12:55:20.260Z,23.60
2023-03-17T13:00:34.478Z,23.60
2023-03-17T13:05:44.103Z,23.50
2023-03-17T13:11:00.868Z,23.50
2023-03-17T13:16:29.562Z,23.40
2023-03-17T13:21:36.902Z,23.40
2023-03-17T13:27:03.954Z,23.40
2023-03-17T13:38:42.950Z,23.50
2023-03-17T13:44:18.669Z,23.40
2023-03-17T13:49:44.097Z,23.40
2023-03-17T13:55:06.884Z,23.40
2023-03-17T14:00:22.717Z,23.50
2023-03-17T14:05:43.771Z,23.40
2023-03-17T14:10:59.201Z,23.40
2023-03-17T14:16:48.365Z,23.40
2023-03-17T14:28:27.311Z,23.40
2023-03-17T14:33:43.046Z,23.20
2023-03-17T14:38:57.021Z,23.20
2023-03-17T14:44:05.099Z,23.10
2023-03-17T14:49:26.712Z,23.00
2023-03-17T14:54:55.873Z,23.00
2023-03-17T15:00:19.029Z,23.10
2023-03-17T15:05:47.759Z,23.20
2023-03-17T15:18:53.269Z,23.10
2023-03-17T15:24:01.856Z,23.00
2023-03-17T15:29:41.947Z,23.00
2023-03-17T15:34:58.713Z,23.00
2023-03-17T15:40:07.135Z,22.90
2023-03-17T15:45:34.620Z,22.80
2023-03-17T15:50:40.919Z,22.80
2023-03-17T15:55:47.440Z,22.80
2023-03-17T16:01:10.279Z,22.80
2023-03-17T16:07:38.598Z,22.70
2023-03-17T16:13:09.840Z,22.70
2023-03-17T16:18:24.372Z,22.80
2023-03-17T16:23:35.315Z,22.90
2023-03-17T16:28:43.359Z,22.80
2023-03-17T16:33:59.582Z,22.80
2023-03-17T16:39:09.889Z,23.00
2023-03-17T16:44:25.614Z,22.90
2023-03-17T16:49:32.091Z,22.90
2023-03-17T16:54:38.139Z,22.90
2023-03-17T16:59:43.402Z,22.90
2023-03-17T17:04:51.189Z,23.10
2023-03-17T17:09:57.880Z,23.10
2023-03-17T17:15:36.890Z,23.10
2023-03-17T17:20:43.265Z,23.00
2023-03-17T17:25:51.407Z,23.00
2023-03-17T17:31:00.416Z,23.00
2023-03-17T17:36:25.585Z,22.80
2023-03-17T17:41:32.695Z,22.80
2023-03-17T17:46:48.366Z,23.10
2023-03-17T17:51:55.104Z,23.30
2023-03-17T17:57:01.690Z,23.20
2023-03-17T18:02:07.784Z,23.00
2023-03-17T18:07:13.019Z,22.80
2023-03-17T18:12:19.421Z,22.90
2023-03-17T18:17:26.338Z,22.90
2023-03-17T18:22:32.660Z,22.90
2023-03-17T18:27:40.665Z,22.80
2023-03-17T18:33:16.820Z,22.90
2023-03-17T18:38:43.677Z,22.90
2023-03-17T18:43:49.869Z,22.80
2023-03-17T18:48:59.657Z,22.80
2023-03-17T18:54:07.336Z,23.00
2023-03-17T18:59:13.473Z,22.90
2023-03-17T19:04:23.370Z,22.90
2023-03-17T19:09:29.808Z,22.80
2023-03-17T19:14:38.556Z,22.80
2023-03-17T19:19:45.142Z,22.70
2023-03-17T19:24:52.171Z,22.50
2023-03-17T19:29:58.283Z,22.50
2023-03-17T19:35:04.642Z,22.50
2023-03-17T19:40:12.084Z,22.40
2023-03-17T19:45:18.199Z,22.50
2023-03-17T19:50:24.255Z,22.60
2023-03-17T19:55:30.937Z,22.70
2023-03-17T20:00:37.460Z,22.60
2023-03-17T20:05:43.698Z,22.50
2023-03-17T20:10:52.007Z,22.60
2023-03-17T20:15:58.542Z,22.60
2023-03-17T20:21:07.177Z,22.60
2023-03-17T20:26:14.434Z,22.50
2023-03-17T20:31:20.575Z,22.50
2023-03-17T20:36:26.121Z,22.40
2023-03-17T20:41:32.951Z,22.40
2023-03-17T20:46:40.182Z,22.40
2023-03-17T20:51:47.927Z,22.50
2023-03-17T20:56:57.070Z,22.50
2023-03-17T21:02:03.644Z,22.60
2023-03-17T21:07:10.683Z,22.50
2023-03-17T21:12:19.852Z,22.50
2023-03-17T21:17:25.802Z,22.50
2023-03-17T21:22:33.042Z,22.50
2023-03-17T21:27:42.625Z,22.40
2023-03-17T21:32:49.217Z,22.40
2023-03-17T21:37:55.038Z,22.30
2023-03-17T21:43:02.431Z,22.30
2023-03-17T21:48:08.558Z,22.30
2023-03-17T21:53:17.005Z,22.30
2023-03-17T21:58:23.443Z,22.30
2023-03-17T22:03:29.794Z,22.40
2023-03-17T22:08:36.068Z,22.30
2023-03-17T22:13:42.759Z,22.30
2023-03-17T22:18:48.783Z,22.20
2023-03-17T22:23:55.245Z,22.20
2023-03-17T22:29:01.167Z,22.20
2023-03-17T22:34:07.726Z,22.20
2023-03-17T22:39:14.199Z,22.20
2023-03-17T22:44:20.357Z,22.20
2023-03-17T22:49:26.651Z,22.20
2023-03-17T22:54:33.262Z,22.30
2023-03-17T22:59:39.594Z,22.20
2023-03-17T23:04:47.056Z,22.20
2023-03-17T23:09:53.555Z,22.20
2023-03-17T23:14:59.642Z,22.10
2023-03-17T23:20:08.093Z,22.10
2023-03-17T23:25:15.207Z,22.10
2023-03-17T23:30:22.469Z,22.10
2023-03-17T23:35:29.394Z,22.00
2023-03-17T23:40:35.914Z,22.10
2023-03-17T23:45:43.837Z,22.10
2023-03-17T23:50:54.214Z,22.20
2023-03-17T23:56:00.205Z,22.20
